Time;durP1;ratioP1;P1;durP2;ratioP2;P2;SDS_P1;SDS_P2;PMS_P1;PMS_P2;Temp;Humidity;BMP_temperature;BMP_pressure;BME280_temperature;BME280_humidity;BME280_pressure;Samples;Min_cycle;Max_cycle;Signal;HPM_P1;HPM_P2
2021/12/26 00:01:56;;;;;;;19.43;14.43;;;;;;;3.49;67.77;98230.53;5000712;28;20755;-69
2021/12/26 00:04:23;;;;;;;20.77;15.47;;;;;;;3.47;67.70;98229.84;4986701;28;20251;-68
2021/12/26 00:06:50;;;;;;;20.30;15.47;;;;;;;3.67;67.27;98221.63;4993972;28;20594;-69
2021/12/26 00:09:17;;;;;;;22.23;15.90;;;;;;;3.29;68.27;98229.97;4999524;28;20231;-69
2021/12/26 00:11:44;;;;;;;24.70;17.00;;;;;;;3.36;68.10;98223.09;5000929;28;20238;-68
2021/12/26 00:14:11;;;;;;;22.00;16.60;;;;;;;3.27;68.25;98228.50;5000865;28;20238;-68
2021/12/26 00:16:39;;;;;;;21.80;15.37;;;;;;;2.77;69.60;98235.44;4993076;28;20230;-69
2021/12/26 00:19:09;;;;;;;24.07;17.57;;;;;;;3.06;68.50;98225.31;4995674;28;20874;-67
2021/12/26 00:21:36;;;;;;;21.50;15.83;;;;;;;3.52;68.14;98224.09;5005494;28;20244;-68
2021/12/26 00:24:03;;;;;;;24.10;17.20;;;;;;;2.79;69.04;98234.28;5004099;28;20228;-68
2021/12/26 00:26:32;;;;;;;20.97;15.67;;;;;;;3.19;68.16;98216.94;5001278;28;20224;-68
2021/12/26 00:29:01;;;;;;;20.90;15.47;;;;;;;3.32;68.34;98216.53;4999610;28;20241;-68
2021/12/26 00:31:28;;;;;;;19.03;14.70;;;;;;;3.32;68.01;98213.03;4988295;28;20240;-68
2021/12/26 00:33:55;;;;;;;20.33;15.43;;;;;;;3.39;67.34;98200.88;4998234;28;20230;-68
2021/12/26 00:36:22;;;;;;;19.93;15.83;;;;;;;3.47;67.36;98211.41;5004266;28;20220;-68
2021/12/26 00:38:49;;;;;;;19.73;15.53;;;;;;;2.98;69.50;98225.31;4996685;28;20617;-69
2021/12/26 00:41:16;;;;;;;21.00;16.77;;;;;;;2.77;68.36;98209.94;5004640;28;20232;-69
2021/12/26 00:43:43;;;;;;;18.23;14.00;;;;;;;2.87;69.10;98228.22;4993323;28;21033;-68
2021/12/26 00:46:15;;;;;;;21.80;16.77;;;;;;;3.25;68.59;98212.84;4994737;28;20223;-69
2021/12/26 00:48:42;;;;;;;20.30;15.33;;;;;;;3.53;67.43;98199.41;4999237;28;20228;-69
2021/12/26 00:51:09;;;;;;;21.70;17.00;;;;;;;2.89;67.80;98201.75;5004078;28;20236;-68
2021/12/26 00:53:36;;;;;;;23.67;16.53;;;;;;;3.32;67.99;98216.53;4993201;28;20237;-68
2021/12/26 00:56:03;;;;;;;24.10;16.60;;;;;;;3.39;67.25;98198.25;4997031;28;20235;-69
2021/12/26 00:58:30;;;;;;;24.37;17.53;;;;;;;2.90;68.61;98213.91;4992734;28;20240;-69
2021/12/26 01:00:58;;;;;;;19.83;15.73;;;;;;;2.87;69.14;98229.06;4999935;28;20219;-67
2021/12/26 01:03:25;;;;;;;19.63;13.80;;;;;;;2.60;69.02;98210.84;5001922;28;20597;-68
2021/12/26 01:05:55;;;;;;;21.03;14.83;;;;;;;3.70;66.61;98190.47;5000050;28;20235;-68
2021/12/26 01:08:26;;;;;;;22.20;14.20;;;;;;;3.69;66.76;98188.84;5001068;28;20241;-68
2021/12/26 01:11:01;;;;;;;21.90;15.60;;;;;;;3.57;66.33;98192.78;4988706;28;20849;-68
2021/12/26 01:13:34;;;;;;;26.17;18.47;;;;;;;3.37;67.17;98193.13;5001033;28;20489;-69
2021/12/26 01:16:05;;;;;;;23.87;16.73;;;;;;;3.51;66.60;98190.84;5001173;28;20232;-69
2021/12/26 01:18:37;;;;;;;21.40;15.07;;;;;;;3.69;66.59;98186.22;5000296;28;20580;-68
2021/12/26 01:21:17;;;;;;;22.30;16.50;;;;;;;3.10;68.66;98215.31;5002313;28;20231;-68
2021/12/26 01:23:51;;;;;;;20.83;15.20;;;;;;;3.36;67.71;98206.47;4991855;28;20242;-68
2021/12/26 01:26:19;;;;;;;20.00;14.50;;;;;;;3.22;67.83;98213.19;4995169;28;20228;-68
2021/12/26 01:28:46;;;;;;;23.27;15.60;;;;;;;3.62;67.06;98211.56;5001899;28;20236;-69
2021/12/26 01:31:18;;;;;;;18.80;14.87;;;;;;;2.90;68.92;98230.56;5001734;28;20254;-68
2021/12/26 01:33:47;;;;;;;21.10;15.93;;;;;;;3.15;68.48;98226.19;5000415;28;20253;-69
2021/12/26 01:36:14;;;;;;;20.97;15.87;;;;;;;3.38;67.45;98215.84;4991417;28;20234;-67
2021/12/26 01:38:41;;;;;;;21.50;17.07;;;;;;;3.04;68.54;98224.66;4983670;28;20237;-68
2021/12/26 01:41:10;;;;;;;26.77;18.93;;;;;;;3.03;68.37;98212.47;4991819;28;20258;-68
2021/12/26 01:43:45;;;;;;;24.57;18.00;;;;;;;3.41;67.92;98212.06;4999931;28;20239;-68
2021/12/26 01:46:13;;;;;;;24.07;16.23;;;;;;;2.65;70.39;98222.56;4997088;28;20218;-68
2021/12/26 01:48:40;;;;;;;23.00;17.27;;;;;;;3.31;68.80;98212.19;4993369;28;20751;-69
2021/12/26 01:51:07;;;;;;;23.60;17.33;;;;;;;2.98;68.71;98208.66;4989861;28;20236;-68
2021/12/26 01:53:37;;;;;;;24.90;17.43;;;;;;;3.53;67.88;98196.75;4995823;28;20237;-68
2021/12/26 01:56:09;;;;;;;28.30;18.00;;;;;;;3.51;67.69;98196.91;5002146;28;20236;-68
2021/12/26 01:58:37;;;;;;;26.10;18.03;;;;;;;3.22;68.11;98206.09;4994927;28;20236;-68
2021/12/26 02:01:13;;;;;;;24.77;17.83;;;;;;;2.78;69.09;98210.75;5004386;28;20279;-68
2021/12/26 02:03:41;;;;;;;23.40;17.00;;;;;;;2.88;69.33;98211.44;4988711;28;20722;-68
2021/12/26 02:06:09;;;;;;;24.47;17.73;;;;;;;2.96;69.77;98216.72;4996742;28;20303;-69
2021/12/26 02:08:36;;;;;;;22.83;16.63;;;;;;;3.20;68.72;98215.97;4997542;28;20237;-68
2021/12/26 02:11:03;;;;;;;26.63;17.87;;;;;;;2.83;69.55;98218.97;4994150;28;20227;-68
2021/12/26 02:13:31;;;;;;;28.07;18.20;;;;;;;3.10;67.71;98198.66;4995336;28;20234;-69
2021/12/26 02:15:58;;;;;;;25.07;17.00;;;;;;;3.14;68.37;98211.34;4991919;28;21560;-68
2021/12/26 02:18:26;;;;;;;30.10;19.93;;;;;;;3.03;69.23;98219.53;4992675;28;20281;-68
2021/12/26 02:23:29;;;;;;;28.47;18.83;;;;;;;3.16;68.62;98216.44;4998344;28;21412;-67
2021/12/26 02:28:26;;;;;;;26.57;18.77;;;;;;;3.41;67.01;98210.25;4996620;28;20611;-68
2021/12/26 02:30:55;;;;;;;28.10;18.53;;;;;;;2.89;69.21;98222.81;4982641;28;20229;-68
2021/12/26 02:33:22;;;;;;;28.43;19.23;;;;;;;3.50;67.08;98207.63;4993340;28;20238;-67
2021/12/26 02:35:51;;;;;;;28.60;19.33;;;;;;;3.05;67.92;98213.13;4999149;28;20236;-68
2021/12/26 02:38:19;;;;;;;28.80;18.73;;;;;;;3.23;68.33;98212.19;5000433;28;20234;-68
2021/12/26 02:40:49;;;;;;;28.60;18.90;;;;;;;3.25;69.02;98220.75;4991308;28;20240;-68
2021/12/26 02:43:17;;;;;;;27.50;18.60;;;;;;;3.06;68.53;98212.13;4984747;28;20239;-69
2021/12/26 02:45:45;;;;;;;28.80;19.23;;;;;;;3.23;67.97;98205.09;4995533;28;20245;-69
2021/12/26 02:48:12;;;;;;;28.27;18.27;;;;;;;3.31;68.25;98216.66;4999803;28;20818;-68
2021/12/26 02:50:41;;;;;;;28.73;18.80;;;;;;;2.87;68.58;98209.81;4998310;28;20238;-68
2021/12/26 02:53:11;;;;;;;27.50;19.20;;;;;;;3.46;67.55;98199.22;4995266;28;21498;-68
2021/12/26 02:55:39;;;;;;;25.73;18.33;;;;;;;3.78;66.57;98195.75;4996805;28;20242;-68
2021/12/26 02:58:08;;;;;;;27.50;19.27;;;;;;;3.98;66.22;98195.41;4988290;28;20246;-68
2021/12/26 03:00:46;;;;;;;33.13;20.67;;;;;;;3.04;68.51;98210.66;5000423;28;20225;-68
2021/12/26 03:03:13;;;;;;;25.83;18.67;;;;;;;3.14;69.07;98221.88;4995455;28;20263;-68
2021/12/26 03:05:43;;;;;;;26.23;17.87;;;;;;;3.00;69.45;98223.34;4996118;28;20236;-69
2021/12/26 03:08:13;;;;;;;27.87;18.40;;;;;;;3.76;66.55;98192.47;4989159;28;20231;-69
2021/12/26 03:10:40;;;;;;;28.23;19.43;;;;;;;3.80;66.22;98177.94;4990860;28;20313;-68
2021/12/26 03:13:10;;;;;;;27.47;18.13;;;;;;;3.59;66.98;98199.56;4991183;28;21524;-68
2021/12/26 03:15:38;;;;;;;32.97;18.93;;;;;;;3.06;68.60;98213.97;4998831;28;20240;-68
2021/12/26 03:18:07;;;;;;;29.70;19.73;;;;;;;3.22;68.55;98215.81;5001842;28;20741;-69
2021/12/26 03:20:39;;;;;;;27.23;18.97;;;;;;;3.17;68.39;98216.28;4990984;28;20224;-68
2021/12/26 03:23:07;;;;;;;29.60;20.23;;;;;;;3.92;66.63;98204.00;4988610;28;20251;-68
2021/12/26 03:25:36;;;;;;;28.77;20.03;;;;;;;3.56;66.72;98209.63;4993904;28;20232;-69
2021/12/26 03:28:06;;;;;;;28.40;18.97;;;;;;;2.99;68.06;98211.13;5001567;28;20237;-68
2021/12/26 03:30:34;;;;;;;28.53;19.57;;;;;;;3.47;67.68;98219.31;4999144;28;20228;-67
2021/12/26 03:33:04;;;;;;;28.10;19.23;;;;;;;3.55;67.57;98207.97;5000625;28;20223;-67
2021/12/26 03:35:32;;;;;;;25.83;17.80;;;;;;;3.88;66.39;98200.03;4989479;28;20236;-68
2021/12/26 03:38:00;;;;;;;32.13;19.77;;;;;;;3.72;66.20;98196.41;4992734;28;20232;-68
2021/12/26 03:40:27;;;;;;;31.90;20.10;;;;;;;3.86;65.95;98183.53;4991150;28;20220;-68
2021/12/26 03:42:54;;;;;;;28.30;19.30;;;;;;;3.87;65.81;98186.00;5002146;28;20219;-68
2021/12/26 03:45:39;;;;;;;29.67;19.80;;;;;;;3.80;66.75;98206.97;5001716;28;20251;-69
2021/12/26 03:48:07;;;;;;;29.67;20.03;;;;;;;3.97;66.28;98206.94;4999651;28;20235;-68
2021/12/26 03:50:39;;;;;;;27.57;18.77;;;;;;;3.86;66.25;98200.22;4985460;28;20231;-68
2021/12/26 03:53:06;;;;;;;31.37;19.57;;;;;;;4.02;65.77;98196.72;5004261;28;20234;-68
2021/12/26 03:55:33;;;;;;;29.30;19.13;;;;;;;3.36;67.48;98212.56;5000355;28;20245;-68
2021/12/26 03:58:00;;;;;;;30.57;19.70;;;;;;;3.57;66.09;98192.78;5004094;28;20240;-68
2021/12/26 04:00:28;;;;;;;30.10;18.80;;;;;;;3.46;67.34;98214.22;4993985;28;20236;-68
2021/12/26 04:02:55;;;;;;;25.83;18.00;;;;;;;3.54;66.96;98203.66;4984711;28;20735;-69
2021/12/26 04:05:22;;;;;;;28.20;17.70;;;;;;;3.40;67.18;98216.50;4995214;28;20272;-68
2021/12/26 04:07:50;;;;;;;29.17;18.93;;;;;;;2.28;70.91;98225.50;4998416;28;20240;-68
2021/12/26 04:10:19;;;;;;;24.77;17.40;;;;;;;3.30;68.94;98221.06;4997386;28;20233;-68
2021/12/26 04:12:48;;;;;;;27.53;17.47;;;;;;;3.42;68.16;98204.00;4996831;28;20226;-68
2021/12/26 04:15:19;;;;;;;26.07;16.77;;;;;;;3.32;68.43;98213.88;4990607;28;20242;-69
2021/12/26 04:17:48;;;;;;;23.20;16.37;;;;;;;2.93;68.75;98208.31;4987275;28;20265;-69
2021/12/26 04:20:15;;;;;;;23.40;16.20;;;;;;;2.87;69.42;98212.44;4995032;28;20234;-68
2021/12/26 04:22:42;;;;;;;24.13;16.83;;;;;;;3.71;67.19;98196.56;4999584;28;20225;-68
2021/12/26 04:25:10;;;;;;;23.47;16.73;;;;;;;4.04;65.48;98178.91;4998842;28;20250;-68
2021/12/26 04:27:37;;;;;;;24.37;17.57;;;;;;;3.78;66.33;98189.66;5005618;28;20237;-68
2021/12/26 04:30:07;;;;;;;25.83;17.80;;;;;;;3.79;66.75;98192.13;4992316;28;20247;-69
2021/12/26 04:32:34;;;;;;;28.33;18.80;;;;;;;4.04;65.56;98183.34;5003971;28;20224;-68
2021/12/26 04:35:02;;;;;;;25.47;17.90;;;;;;;3.79;65.56;98181.59;4996496;28;20235;-68
2021/12/26 04:37:29;;;;;;;24.80;17.37;;;;;;;4.02;66.17;98195.91;4994399;28;20649;-68
2021/12/26 04:39:56;;;;;;;24.60;17.93;;;;;;;3.54;66.22;98198.38;5000732;28;20236;-68
2021/12/26 04:42:23;;;;;;;26.93;18.07;;;;;;;3.76;66.56;98208.28;4988140;28;20230;-68
2021/12/26 04:44:52;;;;;;;28.83;18.23;;;;;;;3.72;65.90;98203.50;4992553;28;20725;-68
2021/12/26 04:47:19;;;;;;;27.23;18.10;;;;;;;3.65;65.68;98187.53;4998841;28;20675;-68
2021/12/26 04:49:46;;;;;;;29.03;19.13;;;;;;;4.26;65.20;98195.00;5027831;28;20237;-68
2021/12/26 04:52:13;;;;;;;28.17;18.23;;;;;;;3.59;66.49;98206.63;5000963;28;20540;-69
2021/12/26 04:54:41;;;;;;;29.10;18.97;;;;;;;3.79;66.31;98207.97;4992952;28;20231;-69
2021/12/26 04:57:08;;;;;;;28.43;18.63;;;;;;;3.74;66.54;98206.78;4978277;28;20297;-68
2021/12/26 04:59:35;;;;;;;26.90;19.83;;;;;;;4.26;65.16;98195.81;4996804;28;20231;-67
2021/12/26 05:02:02;;;;;;;30.87;20.27;;;;;;;4.26;64.77;98192.38;5005832;28;20236;-68
2021/12/26 05:04:29;;;;;;;31.67;20.17;;;;;;;3.16;66.83;98203.28;4991709;28;20232;-68
2021/12/26 05:06:56;;;;;;;26.63;19.43;;;;;;;3.85;65.91;98205.66;4997841;28;20230;-68
2021/12/26 05:09:23;;;;;;;28.63;19.90;;;;;;;3.73;66.13;98205.97;4989832;28;20229;-68
2021/12/26 05:11:50;;;;;;;28.83;18.37;;;;;;;3.80;66.26;98201.69;4987985;28;20237;-69
2021/12/26 05:14:17;;;;;;;30.33;20.27;;;;;;;3.21;66.79;98207.06;5001764;28;20230;-68
2021/12/26 05:16:44;;;;;;;30.03;19.43;;;;;;;3.51;66.82;98211.94;5002540;28;20233;-68
2021/12/26 05:19:11;;;;;;;29.53;19.77;;;;;;;3.20;67.47;98212.50;5001803;28;20234;-68
2021/12/26 05:21:37;;;;;;;30.20;19.93;;;;;;;3.53;66.47;98205.47;4984246;28;20599;-68
2021/12/26 05:24:04;;;;;;;27.67;19.67;;;;;;;2.88;68.59;98229.88;4985225;28;20241;-68
2021/12/26 05:26:31;;;;;;;27.50;19.37;;;;;;;3.76;66.34;98204.84;4996868;28;20229;-68
2021/12/26 05:28:58;;;;;;;27.60;19.20;;;;;;;4.06;65.77;98205.94;4996965;28;20648;-68
2021/12/26 05:31:25;;;;;;;30.27;20.37;;;;;;;4.06;65.13;98190.09;4998295;28;20231;-69
2021/12/26 05:33:52;;;;;;;27.33;18.33;;;;;;;3.84;65.78;98201.34;4995733;28;20953;-68
2021/12/26 05:36:19;;;;;;;31.07;21.00;;;;;;;4.38;64.01;98193.66;4986873;28;20233;-68
2021/12/26 05:38:46;;;;;;;27.77;19.67;;;;;;;3.83;65.47;98192.63;4997096;28;20239;-69
2021/12/26 05:41:13;;;;;;;30.30;20.90;;;;;;;3.76;65.25;98189.84;4994566;28;20236;-68
2021/12/26 05:43:41;;;;;;;28.37;18.57;;;;;;;3.35;66.63;98196.91;4992320;28;20231;-68
2021/12/26 05:46:08;;;;;;;29.77;19.33;;;;;;;3.82;66.28;98200.69;4995982;28;20238;-68
2021/12/26 05:48:35;;;;;;;29.77;21.03;;;;;;;4.16;64.86;98189.91;4995150;28;20239;-69
2021/12/26 05:51:02;;;;;;;33.53;19.40;;;;;;;4.42;63.75;98179.13;4992936;28;20229;-68
2021/12/26 05:53:29;;;;;;;28.90;19.57;;;;;;;4.51;63.79;98187.84;4997116;28;20235;-68
2021/12/26 05:55:56;;;;;;;27.93;19.90;;;;;;;4.26;63.29;98179.97;4994540;28;20229;-68
2021/12/26 05:58:23;;;;;;;29.23;20.40;;;;;;;3.91;65.01;98200.53;4996631;28;20239;-68
2021/12/26 06:00:50;;;;;;;31.07;20.53;;;;;;;4.19;64.28;98192.22;4998506;28;20246;-68
2021/12/26 06:03:17;;;;;;;31.57;20.47;;;;;;;4.22;63.41;98181.34;4983253;28;20239;-68
2021/12/26 06:05:44;;;;;;;39.07;21.03;;;;;;;4.25;64.52;98188.91;4997099;28;20619;-68
2021/12/26 06:08:11;;;;;;;32.27;20.93;;;;;;;4.02;64.67;98193.25;5001492;28;20228;-68
2021/12/26 06:10:38;;;;;;;29.90;20.27;;;;;;;3.85;65.00;98200.38;5000922;28;20231;-68
2021/12/26 06:13:05;;;;;;;33.33;20.47;;;;;;;4.29;63.87;98190.22;5002951;28;20718;-68
2021/12/26 06:15:32;;;;;;;32.57;20.63;;;;;;;3.65;64.89;98184.88;4992200;28;20621;-68
2021/12/26 06:17:59;;;;;;;28.57;19.20;;;;;;;3.74;65.76;98202.38;4997445;28;20257;-68
2021/12/26 06:20:26;;;;;;;31.40;21.07;;;;;;;4.12;64.77;98204.44;4996159;28;20240;-68
2021/12/26 06:22:53;;;;;;;30.53;20.07;;;;;;;4.22;63.72;98186.59;5001668;28;20232;-68
2021/12/26 06:25:20;;;;;;;29.33;19.43;;;;;;;3.93;65.28;98208.28;5002750;28;21577;-68
2021/12/26 06:27:47;;;;;;;32.73;22.20;;;;;;;3.82;65.19;98203.34;4991492;28;20257;-68
2021/12/26 06:30:14;;;;;;;36.10;22.47;;;;;;;4.19;64.32;98196.69;4984357;28;20246;-68
2021/12/26 06:32:41;;;;;;;29.57;19.93;;;;;;;3.93;64.74;98195.09;5000235;28;20237;-68
2021/12/26 06:35:09;;;;;;;29.20;20.33;;;;;;;4.21;63.99;98197.34;4991283;28;20230;-68
2021/12/26 06:37:37;;;;;;;28.67;19.10;;;;;;;3.73;64.38;98202.53;4992384;28;20235;-68
2021/12/26 06:40:07;;;;;;;31.43;18.93;;;;;;;3.96;65.14;98205.28;4996788;28;20239;-68
2021/12/26 06:42:40;;;;;;;28.63;19.63;;;;;;;3.94;64.81;98215.19;4982996;28;20235;-68
2021/12/26 06:45:14;;;;;;;31.53;19.87;;;;;;;4.06;64.76;98211.22;4997692;28;20248;-68
2021/12/26 06:47:45;;;;;;;35.20;20.57;;;;;;;3.68;64.86;98202.19;4995934;28;20235;-68
2021/12/26 06:50:12;;;;;;;32.17;20.10;;;;;;;4.28;64.22;98208.84;4991137;28;20234;-68
2021/12/26 06:52:39;;;;;;;31.97;21.40;;;;;;;4.73;62.77;98200.28;4986797;28;20242;-68
2021/12/26 06:55:06;;;;;;;31.73;20.93;;;;;;;4.77;62.51;98194.66;4992028;28;20231;-68
2021/12/26 06:57:34;;;;;;;32.53;20.87;;;;;;;4.09;63.58;98200.31;4990199;28;20227;-68
2021/12/26 07:00:01;;;;;;;32.27;21.27;;;;;;;4.44;63.47;98200.91;5001036;28;20268;-68
2021/12/26 07:02:28;;;;;;;34.77;19.97;;;;;;;3.88;64.65;98208.78;4997340;28;20603;-68
2021/12/26 07:04:55;;;;;;;30.07;20.57;;;;;;;4.08;65.00;98216.31;4999775;28;20235;-67
2021/12/26 07:07:22;;;;;;;30.43;20.40;;;;;;;3.59;66.42;98233.00;4998880;28;20818;-68
2021/12/26 07:09:49;;;;;;;28.93;19.60;;;;;;;4.66;63.27;98209.88;4985682;28;20243;-68
2021/12/26 07:12:16;;;;;;;55.17;37.17;;;;;;;4.11;64.31;98218.63;4996003;28;20634;-68
2021/12/26 07:14:43;;;;;;;30.70;21.17;;;;;;;4.15;64.06;98220.78;4996454;28;20335;-68
2021/12/26 07:17:12;;;;;;;33.57;20.63;;;;;;;3.96;64.04;98214.06;4996735;28;20226;-68
2021/12/26 07:19:39;;;;;;;30.93;21.30;;;;;;;3.87;64.84;98216.84;5000523;28;20239;-68
2021/12/26 07:22:07;;;;;;;32.80;20.93;;;;;;;4.39;63.42;98216.44;4996008;28;20741;-68
2021/12/26 07:24:34;;;;;;;29.63;19.37;;;;;;;4.56;63.53;98213.75;4994626;28;20219;-68
2021/12/26 07:27:01;;;;;;;30.27;19.60;;;;;;;4.65;63.03;98215.34;4998250;28;20720;-68
2021/12/26 07:29:28;;;;;;;30.00;20.13;;;;;;;4.15;63.88;98223.41;5001847;28;20239;-68
2021/12/26 07:31:55;;;;;;;32.60;22.13;;;;;;;4.73;62.44;98217.94;5002816;28;20227;-68
2021/12/26 07:34:22;;;;;;;32.97;21.80;;;;;;;4.49;62.93;98217.03;4997100;28;20293;-68
2021/12/26 07:36:49;;;;;;;30.67;20.40;;;;;;;4.66;62.42;98222.28;4988867;28;20237;-68
2021/12/26 07:39:16;;;;;;;30.83;20.07;;;;;;;4.73;62.11;98210.03;5002013;28;20699;-68
2021/12/26 07:41:43;;;;;;;34.13;21.40;;;;;;;4.94;61.92;98219.19;4999214;28;20737;-68
2021/12/26 07:44:10;;;;;;;33.30;20.67;;;;;;;4.95;62.03;98221.66;5004978;28;20227;-68
2021/12/26 07:46:38;;;;;;;31.93;21.03;;;;;;;4.28;63.14;98220.25;4995058;28;20617;-68
2021/12/26 07:49:05;;;;;;;32.60;20.97;;;;;;;4.95;61.77;98208.47;4990057;28;20243;-69
2021/12/26 07:51:32;;;;;;;28.83;18.57;;;;;;;4.38;63.79;98230.59;4998147;28;20226;-68
2021/12/26 07:54:01;;;;;;;37.00;21.50;;;;;;;4.56;62.72;98224.31;4995933;28;20235;-68
2021/12/26 07:56:30;;;;;;;31.40;20.67;;;;;;;4.52;63.31;98232.56;5001058;28;20234;-68
2021/12/26 07:58:58;;;;;;;28.30;19.50;;;;;;;4.60;62.66;98230.88;4995127;28;21632;-68
2021/12/26 08:01:28;;;;;;;31.20;19.80;;;;;;;5.40;60.84;98221.91;4995792;28;20243;-68
2021/12/26 08:03:57;;;;;;;31.70;20.10;;;;;;;4.73;62.63;98239.09;4993435;28;20273;-68
2021/12/26 08:06:24;;;;;;;29.50;19.33;;;;;;;4.06;64.26;98232.31;4997303;28;20224;-68
2021/12/26 08:08:51;;;;;;;32.80;20.80;;;;;;;4.70;62.55;98220.94;4995287;28;20240;-68
2021/12/26 08:11:18;;;;;;;30.20;19.40;;;;;;;4.72;62.28;98221.56;5001474;28;20240;-69
2021/12/26 08:13:45;;;;;;;29.87;19.93;;;;;;;4.93;62.23;98217.56;4997653;28;20239;-69
2021/12/26 08:16:12;;;;;;;30.13;20.30;;;;;;;4.34;64.11;98235.41;4996217;28;20231;-68
2021/12/26 08:18:40;;;;;;;37.10;20.97;;;;;;;4.97;62.11;98208.28;5021730;28;20229;-69
2021/12/26 08:21:08;;;;;;;29.27;18.20;;;;;;;4.98;62.22;98207.31;4995205;28;20233;-69
2021/12/26 08:23:34;;;;;;;28.93;18.73;;;;;;;4.95;62.42;98215.56;4996605;28;20232;-68
2021/12/26 08:26:02;;;;;;;28.87;19.17;;;;;;;4.71;62.81;98223.41;4998453;28;20251;-68
2021/12/26 08:28:29;;;;;;;29.80;19.70;;;;;;;4.94;62.44;98224.50;4993373;28;20239;-68
2021/12/26 08:30:56;;;;;;;29.20;18.70;;;;;;;4.83;62.21;98225.66;4995879;28;21084;-69
2021/12/26 08:33:23;;;;;;;30.30;21.00;;;;;;;4.66;62.47;98232.84;5000262;28;20229;-68
2021/12/26 08:35:52;;;;;;;28.90;19.53;;;;;;;4.48;64.11;98241.78;4993684;28;20235;-69
2021/12/26 08:38:22;;;;;;;34.33;19.47;;;;;;;4.91;62.53;98234.41;5005033;28;20228;-68
2021/12/26 08:40:52;;;;;;;29.90;20.73;;;;;;;4.80;63.07;98240.03;4986481;28;20232;-68
2021/12/26 08:43:20;;;;;;;28.67;19.40;;;;;;;4.22;63.47;98241.22;4990871;28;20647;-68
2021/12/26 08:45:48;;;;;;;31.57;20.37;;;;;;;5.13;61.82;98239.09;5002798;28;20235;-69
2021/12/26 08:48:17;;;;;;;30.23;18.17;;;;;;;5.14;61.54;98230.97;4998764;28;21016;-68
2021/12/26 08:50:45;;;;;;;31.23;20.30;;;;;;;5.16;61.80;98225.53;5000060;28;20234;-68
2021/12/26 08:53:12;;;;;;;33.63;20.67;;;;;;;3.70;65.09;98247.69;4998924;28;20814;-68
2021/12/26 08:55:40;;;;;;;30.53;19.30;;;;;;;3.98;64.57;98256.09;4987225;28;20241;-68
2021/12/26 08:58:07;;;;;;;30.27;19.47;;;;;;;3.96;65.27;98260.69;4994092;28;20230;-69
2021/12/26 09:00:35;;;;;;;29.83;19.70;;;;;;;3.49;66.31;98258.69;4996113;28;20226;-68
2021/12/26 09:03:02;;;;;;;28.87;19.67;;;;;;;4.36;64.21;98246.63;4999821;28;20237;-69
2021/12/26 09:05:30;;;;;;;29.37;18.97;;;;;;;4.40;63.41;98239.22;5000833;28;20270;-68
2021/12/26 09:07:56;;;;;;;33.80;20.30;;;;;;;4.08;64.83;98248.81;4988478;28;20239;-68
2021/12/26 09:10:24;;;;;;;29.17;19.37;;;;;;;4.13;65.36;98257.06;4995257;28;20229;-68
2021/12/26 09:12:50;;;;;;;31.80;18.97;;;;;;;4.25;64.97;98259.34;5000336;28;20708;-69
2021/12/26 09:15:17;;;;;;;32.67;19.63;;;;;;;3.67;67.22;98269.91;5000743;28;20262;-68
2021/12/26 09:17:45;;;;;;;30.40;18.57;;;;;;;4.29;64.50;98250.13;5001915;28;20228;-68
2021/12/26 09:20:12;;;;;;;33.30;19.07;;;;;;;4.06;64.77;98245.50;4999921;28;20233;-68
2021/12/26 09:22:40;;;;;;;37.57;20.77;;;;;;;3.65;67.06;98265.81;4985011;28;20247;-69
2021/12/26 09:25:07;;;;;;;29.13;17.67;;;;;;;3.64;66.93;98256.25;5001272;28;20232;-68
2021/12/26 09:27:35;;;;;;;27.70;18.13;;;;;;;3.66;66.81;98256.91;5003703;28;20233;-68
2021/12/26 09:30:06;;;;;;;31.83;19.20;;;;;;;3.63;66.94;98263.34;5000189;28;20232;-68
2021/12/26 09:32:34;;;;;;;32.77;19.53;;;;;;;4.52;64.58;98245.75;4995721;28;20223;-68
2021/12/26 09:35:02;;;;;;;30.40;19.13;;;;;;;4.20;65.06;98248.47;4987144;28;20233;-68
2021/12/26 09:37:29;;;;;;;30.87;19.80;;;;;;;4.43;64.61;98246.75;4997371;28;20630;-68
2021/12/26 09:39:56;;;;;;;30.83;19.00;;;;;;;4.11;64.88;98253.78;5001122;28;20221;-71
2021/12/26 09:42:24;;;;;;;31.43;18.80;;;;;;;4.21;65.73;98255.41;4999261;28;20254;-69
2021/12/26 09:44:52;;;;;;;28.13;18.47;;;;;;;3.80;66.50;98272.91;4997880;28;20235;-67
2021/12/26 09:47:19;;;;;;;29.90;18.17;;;;;;;4.29;65.37;98271.22;4986121;28;20755;-67
2021/12/26 09:49:48;;;;;;;28.87;18.80;;;;;;;4.29;64.36;98256.19;5008390;28;20621;-66
2021/12/26 09:52:15;;;;;;;35.60;19.77;;;;;;;4.51;64.34;98253.84;5004087;28;20240;-67
2021/12/26 09:54:43;;;;;;;36.73;19.07;;;;;;;4.60;64.31;98252.81;4991574;28;20237;-66
2021/12/26 09:57:10;;;;;;;34.93;23.07;;;;;;;3.96;66.31;98263.34;4985465;28;20235;-67
2021/12/26 09:59:38;;;;;;;44.63;26.50;;;;;;;3.85;67.30;98263.69;5004524;28;20241;-66
2021/12/26 10:02:11;;;;;;;35.93;20.63;;;;;;;3.83;65.28;98239.25;4979381;28;20232;-68
2021/12/26 10:04:49;;;;;;;34.33;20.50;;;;;;;4.15;64.98;98241.88;4999698;28;20235;-66
2021/12/26 10:07:23;;;;;;;35.63;20.60;;;;;;;4.39;64.86;98237.53;4994232;28;21167;-66
2021/12/26 10:09:52;;;;;;;33.47;19.33;;;;;;;3.90;65.51;98227.06;4999405;28;20236;-67
2021/12/26 10:12:21;;;;;;;37.00;20.63;;;;;;;4.12;65.80;98244.03;5001030;28;20231;-67
2021/12/26 10:14:52;;;;;;;34.97;19.10;;;;;;;4.18;65.76;98235.47;4982741;28;21185;-68
2021/12/26 10:17:26;;;;;;;38.43;21.63;;;;;;;4.37;65.95;98228.97;4984359;28;20225;-67
2021/12/26 10:20:14;;;;;;;35.10;20.83;;;;;;;5.06;63.84;98207.25;4998483;28;20236;-67
2021/12/26 10:22:41;;;;;;;32.30;20.97;;;;;;;4.52;64.87;98222.00;4987390;28;20233;-67
2021/12/26 10:25:14;;;;;;;34.90;20.17;;;;;;;4.35;64.64;98207.22;5000182;28;20232;-67
2021/12/26 10:27:44;;;;;;;35.33;19.63;;;;;;;4.06;64.36;98184.81;4997480;28;20237;-67
2021/12/26 10:30:17;;;;;;;33.10;19.93;;;;;;;4.12;65.13;98197.34;4982023;28;20232;-67
2021/12/26 10:32:45;;;;;;;42.63;21.07;;;;;;;4.62;64.32;98199.81;5002391;28;21019;-69
2021/12/26 10:35:16;;;;;;;33.37;20.23;;;;;;;4.74;64.09;98187.91;4998915;28;20569;-67
2021/12/26 10:37:46;;;;;;;36.73;19.80;;;;;;;4.69;64.57;98195.53;5002667;28;20225;-66
2021/12/26 10:40:15;;;;;;;35.97;20.67;;;;;;;4.16;65.96;98208.38;4987892;28;20593;-67
2021/12/26 10:42:54;;;;;;;36.70;20.40;;;;;;;4.81;64.18;98180.13;4999131;28;20246;-67
2021/12/26 10:45:24;;;;;;;32.23;19.53;;;;;;;4.83;64.33;98189.50;5001509;28;20240;-67
2021/12/26 10:48:00;;;;;;;37.93;21.10;;;;;;;5.48;62.66;98182.19;5003455;28;20229;-67
2021/12/26 10:50:30;;;;;;;38.83;21.27;;;;;;;5.33;62.74;98173.34;5000933;28;20224;-68
2021/12/26 10:52:59;;;;;;;37.73;20.60;;;;;;;4.67;63.92;98190.41;4989602;28;20255;-67
2021/12/26 10:55:32;;;;;;;35.27;20.03;;;;;;;4.25;65.90;98206.56;4989167;28;20236;-66
2021/12/26 10:58:01;;;;;;;36.93;19.90;;;;;;;4.70;64.71;98197.16;4999693;28;20229;-67
2021/12/26 11:03:47;;;;;;;33.50;20.03;;;;;;;3.48;68.69;98170.88;5049412;28;20580;-67
2021/12/26 11:06:16;;;;;;;38.50;21.07;;;;;;;3.59;68.18;98169.72;5021706;28;20226;-66
2021/12/26 11:08:44;;;;;;;35.50;19.83;;;;;;;4.11;66.65;98163.22;5014763;28;20240;-67
2021/12/26 11:11:16;;;;;;;37.33;21.07;;;;;;;3.61;68.01;98173.84;5009962;28;20219;-68
2021/12/26 11:13:45;;;;;;;45.53;21.37;;;;;;;3.88;67.07;98166.56;5004632;28;20234;-67
2021/12/26 11:16:14;;;;;;;36.13;19.80;;;;;;;3.68;67.72;98171.38;5007791;28;20232;-67
2021/12/26 11:18:41;;;;;;;34.67;19.77;;;;;;;4.26;66.45;98163.34;5012963;28;20240;-67
2021/12/26 11:21:14;;;;;;;32.90;19.83;;;;;;;3.89;66.64;98154.19;5010709;28;20220;-68
2021/12/26 11:23:44;;;;;;;37.00;20.40;;;;;;;3.77;68.46;98172.19;5009568;28;20236;-70
2021/12/26 11:26:15;;;;;;;38.33;21.80;;;;;;;4.45;65.90;98151.53;5001301;28;20646;-65
2021/12/26 11:28:48;;;;;;;40.00;22.37;;;;;;;4.23;66.46;98150.47;5005951;28;20243;-68
2021/12/26 11:31:19;;;;;;;48.87;27.80;;;;;;;3.88;67.64;98152.56;5009264;28;20235;-67
2021/12/26 11:33:49;;;;;;;51.00;28.47;;;;;;;4.08;67.87;98158.25;5010322;28;20237;-69
2021/12/26 11:36:16;;;;;;;38.27;20.77;;;;;;;4.54;66.50;98145.25;5013131;28;20592;-67
2021/12/26 11:38:44;;;;;;;39.30;20.57;;;;;;;4.27;67.37;98149.16;5014262;28;20288;-67